createdAt,value
2022-09-17T00:01:22.717Z,97691.22
2022-09-17T00:03:52.667Z,97679.06
2022-09-17T00:06:22.563Z,97680.66
2022-09-17T00:08:50.749Z,97684.94
2022-09-17T00:11:21.166Z,97682.03
2022-09-17T00:13:49.796Z,97689.78
2022-09-17T00:16:24.391Z,97681.97
2022-09-17T00:18:52.272Z,97696.25
2022-09-17T00:21:22.269Z,97692.19
2022-09-17T00:23:50.275Z,97696.50
2022-09-17T00:26:18.149Z,97694.09
2022-09-17T00:28:49.414Z,97697.84
2022-09-17T00:31:17.359Z,97695.66
2022-09-17T00:33:45.457Z,97697.31
2022-09-17T00:36:13.596Z,97692.69
2022-09-17T00:38:43.456Z,97694.63
2022-09-17T00:41:11.408Z,97693.53
2022-09-17T00:43:41.996Z,97699.75
2022-09-17T00:46:25.013Z,97690.38
2022-09-17T00:48:54.370Z,97692.00
2022-09-17T00:51:26.904Z,97696.53
2022-09-17T00:53:56.806Z,97689.03
2022-09-17T00:56:27.695Z,97686.59
2022-09-17T00:58:56.451Z,97697.13
2022-09-17T01:01:24.639Z,97694.44
2022-09-17T01:03:52.559Z,97704.69
2022-09-17T01:06:26.526Z,97696.63
2022-09-17T01:09:05.924Z,97696.91
2022-09-17T01:11:43.480Z,97698.50
2022-09-17T01:14:24.493Z,97696.09
2022-09-17T01:16:58.245Z,97700.41
2022-09-17T01:20:04.524Z,97692.31
2022-09-17T01:22:35.827Z,97696.06
2022-09-17T01:25:24.786Z,97695.53
2022-09-17T01:28:39.369Z,97697.91
2022-09-17T01:31:26.477Z,97707.06
2022-09-17T01:34:01.504Z,97702.19
2022-09-17T01:36:46.309Z,97696.50
2022-09-17T01:39:23.008Z,97695.94
2022-09-17T01:41:55.293Z,97703.72
2022-09-17T01:44:29.569Z,97710.16
2022-09-17T01:47:03.090Z,97705.84
2022-09-17T01:49:31.788Z,97711.00
2022-09-17T01:52:00.228Z,97706.69
2022-09-17T01:54:32.158Z,97707.75
2022-09-17T01:57:02.882Z,97714.47
2022-09-17T01:59:34.424Z,97712.59
2022-09-17T02:02:08.443Z,97715.50
2022-09-17T02:04:38.237Z,97714.13
2022-09-17T02:07:09.715Z,97712.47
2022-09-17T02:09:41.124Z,97709.56
2022-09-17T02:12:13.188Z,97711.44
2022-09-17T02:14:43.992Z,97712.25
2022-09-17T02:17:17.880Z,97705.50
2022-09-17T02:19:45.845Z,97708.94
2022-09-17T02:22:27.597Z,97713.00
2022-09-17T02:25:02.710Z,97706.00
2022-09-17T02:27:38.822Z,97719.75
2022-09-17T02:30:07.802Z,97709.75
2022-09-17T02:32:37.269Z,97714.09
2022-09-17T02:35:06.417Z,97713.00
2022-09-17T02:37:34.560Z,97717.09
2022-09-17T02:40:03.782Z,97712.47
2022-09-17T02:42:36.921Z,97718.34
2022-09-17T02:45:08.892Z,97714.34
2022-09-17T02:47:51.084Z,97706.84
2022-09-17T02:50:28.341Z,97710.03
2022-09-17T02:53:06.100Z,97710.31
2022-09-17T02:55:38.626Z,97717.03
2022-09-17T02:58:13.795Z,97708.69
2022-09-17T03:00:41.782Z,97706.53
2022-09-17T03:03:16.142Z,97698.34
2022-09-17T03:05:45.527Z,97703.00
2022-09-17T03:08:15.764Z,97701.97
2022-09-17T03:10:43.645Z,97697.41
2022-09-17T03:13:11.542Z,97696.59
2022-09-17T03:15:39.476Z,97700.84
2022-09-17T03:18:07.279Z,97704.41
2022-09-17T03:20:36.831Z,97701.19
2022-09-17T03:23:06.792Z,97698.44
2022-09-17T03:25:34.673Z,97711.91
2022-09-17T03:28:02.913Z,97703.28
2022-09-17T03:30:30.697Z,97698.47
2022-09-17T03:32:58.594Z,97709.22
2022-09-17T03:35:26.542Z,97707.91
2022-09-17T03:37:55.704Z,97703.59
2022-09-17T03:40:23.935Z,97704.38
2022-09-17T03:42:51.796Z,97701.94
2022-09-17T03:45:19.626Z,97709.75
2022-09-17T03:47:47.728Z,97716.75
2022-09-17T03:50:15.533Z,97711.88
2022-09-17T03:52:44.238Z,97715.09
2022-09-17T03:55:13.477Z,97719.41
2022-09-17T03:57:41.273Z,97715.72
2022-09-17T04:00:10.182Z,97716.78
2022-09-17T04:02:38.128Z,97725.63
2022-09-17T04:05:07.424Z,97715.09
2022-09-17T04:07:35.221Z,97721.84
2022-09-17T04:10:04.933Z,97720.22
2022-09-17T04:12:34.301Z,97727.44
2022-09-17T04:15:02.430Z,97718.50
2022-09-17T04:17:30.271Z,97716.88
2022-09-17T04:19:58.224Z,97719.56
2022-09-17T04:22:26.179Z,97724.41
2022-09-17T04:24:54.114Z,97718.75
2022-09-17T04:27:22.049Z,97720.34
2022-09-17T04:29:51.406Z,97720.84
2022-09-17T04:32:19.597Z,97715.66
2022-09-17T04:34:47.467Z,97711.91
2022-09-17T04:37:15.543Z,97724.00
2022-09-17T04:39:43.368Z,97725.06
2022-09-17T04:42:11.204Z,97727.94
2022-09-17T04:44:39.098Z,97732.56
2022-09-17T04:47:08.555Z,97736.88
2022-09-17T04:49:36.536Z,97741.44
2022-09-17T04:52:04.742Z,97744.75
2022-09-17T04:54:32.675Z,97739.31
2022-09-17T04:57:00.596Z,97741.75
2022-09-17T04:59:28.753Z,97750.00
2022-09-17T05:01:56.689Z,97752.22
2022-09-17T05:04:26.021Z,97749.44
2022-09-17T05:06:54.406Z,97755.88
2022-09-17T05:09:22.224Z,97749.91
2022-09-17T05:11:50.010Z,97759.03
2022-09-17T05:14:17.966Z,97753.91
2022-09-17T05:16:48.961Z,97760.59
2022-09-17T05:19:16.832Z,97772.72
2022-09-17T05:21:46.077Z,97762.97
2022-09-17T05:24:14.051Z,97771.09
2022-09-17T05:26:42.203Z,97769.78
2022-09-17T05:29:10.277Z,97767.09
2022-09-17T05:31:38.358Z,97774.91
2022-09-17T05:34:06.266Z,97782.47
2022-09-17T05:36:34.100Z,97776.03
2022-09-17T05:39:03.596Z,97775.47
2022-09-17T05:41:31.516Z,97781.16
2022-09-17T05:43:59.439Z,97779.53
2022-09-17T05:46:27.735Z,97777.44
2022-09-17T05:48:57.022Z,97779.09
2022-09-17T05:51:26.051Z,97779.91
2022-09-17T05:53:55.644Z,97781.53
2022-09-17T05:56:25.501Z,97801.19
2022-09-17T05:58:56.941Z,97791.00
2022-09-17T06:01:25.101Z,97807.94
2022-09-17T06:03:53.536Z,97803.88
2022-09-17T06:06:21.443Z,97805.66
2022-09-17T06:08:49.344Z,97805.09
2022-09-17T06:11:17.226Z,97809.44
2022-09-17T06:13:46.456Z,97813.44
2022-09-17T06:16:14.280Z,97815.09
2022-09-17T06:18:42.135Z,97813.69
2022-09-17T06:21:10.506Z,97810.78
2022-09-17T06:23:38.313Z,97819.94
2022-09-17T06:26:07.523Z,97827.69
2022-09-17T06:28:40.577Z,97811.25
2022-09-17T06:31:12.403Z,97817.78
2022-09-17T06:33:40.642Z,97825.31
2022-09-17T06:36:13.613Z,97821.00
2022-09-17T06:38:42.604Z,97829.16
2022-09-17T06:41:10.548Z,97822.44
2022-09-17T06:43:38.370Z,97828.09
2022-09-17T06:46:09.050Z,97826.38
2022-09-17T06:48:39.118Z,97825.56
2022-09-17T06:51:08.582Z,97832.00
2022-09-17T06:53:37.843Z,97831.03
2022-09-17T06:56:08.317Z,97832.09
2022-09-17T06:58:37.891Z,97837.22
2022-09-17T07:01:06.473Z,97834.03
2022-09-17T07:03:34.813Z,97829.16
2022-09-17T07:06:04.072Z,97827.03
2022-09-17T07:08:34.474Z,97832.19
2022-09-17T07:11:02.497Z,97830.06
2022-09-17T07:13:30.274Z,97826.81
2022-09-17T07:16:00.569Z,97846.22
2022-09-17T07:18:29.243Z,97843.97
2022-09-17T07:20:58.110Z,97841.19
2022-09-17T07:23:28.767Z,97850.91
2022-09-17T07:25:58.170Z,97850.56
2022-09-17T07:28:26.642Z,97862.97
2022-09-17T07:30:55.735Z,97859.41
2022-09-17T07:33:26.325Z,97868.28
2022-09-17T07:35:54.952Z,97866.09
2022-09-17T07:38:23.101Z,97877.91
2022-09-17T07:40:58.087Z,97867.16
2022-09-17T07:43:26.453Z,97873.16
2022-09-17T07:45:54.630Z,97863.47
2022-09-17T07:48:22.769Z,97866.22
2022-09-17T07:50:51.238Z,97872.53
2022-09-17T07:53:19.089Z,97873.34
2022-09-17T07:55:53.455Z,97880.84
2022-09-17T07:58:23.171Z,97887.78
2022-09-17T08:00:51.606Z,97890.41
2022-09-17T08:03:19.691Z,97890.28
2022-09-17T08:05:48.180Z,97897.03
2022-09-17T08:08:20.919Z,97888.16
2022-09-17T08:10:49.141Z,97891.97
2022-09-17T08:13:17.166Z,97889.59
2022-09-17T08:15:46.870Z,97901.06
2022-09-17T08:18:17.420Z,97891.91
2022-09-17T08:20:45.344Z,97901.06
2022-09-17T08:23:13.527Z,97900.00
2022-09-17T08:25:41.431Z,97900.97
2022-09-17T08:28:09.565Z,97896.81
2022-09-17T08:30:37.357Z,97899.75
2022-09-17T08:33:06.742Z,97895.41
2022-09-17T08:35:34.629Z,97890.84
2022-09-17T08:38:02.604Z,97900.63
2022-09-17T08:40:31.576Z,97885.88
2022-09-17T08:43:02.494Z,97892.94
2022-09-17T08:45:30.609Z,97885.50
2022-09-17T08:48:10.744Z,97892.84
2022-09-17T08:50:42.747Z,97901.28
2022-09-17T08:53:28.459Z,97898.75
2022-09-17T08:56:01.292Z,97904.00
2022-09-17T08:58:47.939Z,97909.72
2022-09-17T09:01:32.663Z,97904.41
2022-09-17T09:04:08.483Z,97913.78
2022-09-17T09:06:41.134Z,97912.44
2022-09-17T09:09:13.607Z,97916.78
2022-09-17T09:11:42.691Z,97916.63
2022-09-17T09:14:14.633Z,97901.84
2022-09-17T09:16:45.272Z,97902.75
2022-09-17T09:19:23.792Z,97903.94
2022-09-17T09:22:03.493Z,97895.88
2022-09-17T09:24:38.543Z,97901.03
2022-09-17T09:27:16.915Z,97896.47
2022-09-17T09:29:51.252Z,97901.63
2022-09-17T09:32:26.388Z,97902.69
2022-09-17T09:34:55.901Z,97894.06
2022-09-17T09:37:28.163Z,97899.56
2022-09-17T09:39:57.988Z,97895.31
2022-09-17T09:42:31.146Z,97891.25
2022-09-17T09:45:04.785Z,97899.63
2022-09-17T09:47:57.807Z,97890.16
2022-09-17T09:51:05.115Z,97899.03
2022-09-17T09:53:43.001Z,97895.56
2022-09-17T09:56:25.029Z,97901.50
2022-09-17T09:58:54.195Z,97900.44
2022-09-17T10:01:22.347Z,97894.19
2022-09-17T10:03:51.992Z,97901.50
2022-09-17T10:06:20.825Z,97906.09
2022-09-17T10:09:14.405Z,97901.00
2022-09-17T10:11:42.522Z,97905.03
2022-09-17T10:14:23.611Z,97895.84
2022-09-17T10:16:51.613Z,97903.69
2022-09-17T10:19:25.011Z,97890.25
2022-09-17T10:21:53.524Z,97890.28
2022-09-17T10:24:27.195Z,97895.19
2022-09-17T10:27:02.046Z,97890.69
2022-09-17T10:29:30.336Z,97885.88
2022-09-17T10:31:59.356Z,97880.00
2022-09-17T10:34:28.652Z,97876.53
2022-09-17T10:36:57.356Z,97877.06
2022-09-17T10:39:34.771Z,97877.06
2022-09-17T10:42:04.661Z,97873.28
2022-09-17T10:44:35.184Z,97876.78
2022-09-17T10:47:05.799Z,97877.06
2022-09-17T10:49:39.968Z,97874.91
2022-09-17T10:52:15.617Z,97868.69
2022-09-17T10:54:58.856Z,97879.78
2022-09-17T10:57:39.185Z,97877.38
2022-09-17T11:00:14.448Z,97874.69
2022-09-17T11:03:05.871Z,97867.13
2022-09-17T11:05:46.919Z,97872.78
2022-09-17T11:08:18.602Z,97862.28
2022-09-17T11:10:54.255Z,97859.84
2022-09-17T11:13:29.917Z,97853.63
2022-09-17T11:16:09.746Z,97860.13
2022-09-17T11:18:41.537Z,97854.41
2022-09-17T11:21:42.177Z,97847.34
2022-09-17T11:24:32.832Z,97861.16
2022-09-17T11:27:09.289Z,97856.56
2022-09-17T11:29:56.736Z,97858.97
2022-09-17T11:32:39.562Z,97866.84
2022-09-17T11:35:10.209Z,97877.41
2022-09-17T11:37:41.688Z,97886.28
2022-09-17T11:40:14.918Z,97877.06
2022-09-17T11:42:46.689Z,97871.84
2022-09-17T11:45:18.835Z,97860.13
2022-09-17T11:47:49.341Z,97851.97
2022-09-17T11:50:21.366Z,97852.50
2022-09-17T11:52:57.424Z,97853.31
2022-09-17T11:55:30.641Z,97861.44
2022-09-17T11:58:02.529Z,97859.28
2022-09-17T12:00:31.740Z,97869.06
2022-09-17T12:03:03.238Z,97864.84
2022-09-17T12:05:34.427Z,97853.81
2022-09-17T12:08:06.114Z,97853.31
2022-09-17T12:10:38.698Z,97837.38
2022-09-17T12:13:17.939Z,97838.47
2022-09-17T12:15:52.945Z,97834.97
2022-09-17T12:18:33.312Z,97826.06
2022-09-17T12:21:03.175Z,97817.16
2022-09-17T12:23:38.819Z,97826.06
2022-09-17T12:26:15.524Z,97819.50
2022-09-17T12:28:51.925Z,97819.75
2022-09-17T12:31:26.271Z,97821.03
2022-09-17T12:33:57.619Z,97819.84
2022-09-17T12:36:37.667Z,97804.13
2022-09-17T12:39:21.404Z,97806.63
2022-09-17T12:41:56.682Z,97822.88
2022-09-17T12:44:39.277Z,97829.66
2022-09-17T12:47:22.350Z,97828.53
2022-09-17T12:50:05.270Z,97832.34
2022-09-17T12:52:45.521Z,97826.94
2022-09-17T12:55:31.076Z,97827.75
2022-09-17T12:58:04.594Z,97817.97
2022-09-17T13:00:39.108Z,97832.28
2022-09-17T13:03:13.135Z,97821.41
2022-09-17T13:05:56.981Z,97819.53
2022-09-17T13:08:56.354Z,97846.44
2022-09-17T13:12:00.204Z,97843.19
2022-09-17T13:14:39.284Z,97837.72
2022-09-17T13:17:11.981Z,97843.63
2022-09-17T13:19:45.393Z,97858.31
2022-09-17T13:22:17.949Z,97851.56
2022-09-17T13:24:49.071Z,97855.34
2022-09-17T13:27:22.640Z,97855.66
2022-09-17T13:30:01.136Z,97858.91
2022-09-17T13:32:51.200Z,97848.66
2022-09-17T13:35:51.486Z,97858.41
2022-09-17T13:38:24.273Z,97861.94
2022-09-17T13:40:53.083Z,97848.97
2022-09-17T13:43:24.025Z,97848.44
2022-09-17T13:46:12.398Z,97851.94
2022-09-17T13:48:57.829Z,97849.75
2022-09-17T13:51:53.472Z,97852.41
2022-09-17T13:54:23.461Z,97851.56
2022-09-17T13:57:07.110Z,97851.19
2022-09-17T13:59:36.536Z,97850.34
2022-09-17T14:02:30.840Z,97836.75
2022-09-17T14:05:31.176Z,97854.06
2022-09-17T14:08:31.176Z,97848.63
2022-09-17T14:11:01.531Z,97855.16
2022-09-17T14:13:45.036Z,97845.69
2022-09-17T14:16:35.829Z,97866.06
2022-09-17T14:19:07.052Z,97858.56
2022-09-17T14:21:36.742Z,97859.41
2022-09-17T14:24:15.239Z,97866.47
2022-09-17T14:27:01.657Z,97858.09
2022-09-17T14:30:03.166Z,97861.88
2022-09-17T14:32:34.196Z,97857.50
2022-09-17T14:35:02.790Z,97851.00
2022-09-17T14:37:33.417Z,97854.53
2022-09-17T14:40:01.257Z,97850.19
2022-09-17T14:42:36.325Z,97856.16
2022-09-17T14:45:07.436Z,97846.13
2022-09-17T14:47:35.473Z,97846.44
2022-09-17T14:50:21.732Z,97848.34
2022-09-17T14:52:51.705Z,97848.06
2022-09-17T14:55:21.535Z,97834.03
2022-09-17T14:57:52.657Z,97841.09
2022-09-17T15:00:23.214Z,97831.91
2022-09-17T15:02:59.379Z,97831.91
2022-09-17T15:05:31.700Z,97838.69
2022-09-17T15:08:12.453Z,97827.63
2022-09-17T15:10:47.436Z,97831.13
2022-09-17T15:13:16.923Z,97835.44
2022-09-17T15:15:53.701Z,97834.34
2022-09-17T15:18:22.342Z,97833.25
2022-09-17T15:20:50.905Z,97837.25
2022-09-17T15:23:25.390Z,97828.84
2022-09-17T15:25:56.557Z,97826.66
2022-09-17T15:28:29.760Z,97816.94
2022-09-17T15:30:57.987Z,97829.34
2022-09-17T15:33:25.915Z,97824.72
2022-09-17T15:36:02.242Z,97824.47
2022-09-17T15:38:33.155Z,97809.59
2022-09-17T15:41:21.042Z,97814.47
2022-09-17T15:43:49.424Z,97826.66
2022-09-17T15:46:24.601Z,97829.38
2022-09-17T15:48:52.433Z,97826.72
2022-09-17T15:51:26.474Z,97828.91
2022-09-17T15:53:57.819Z,97821.88
2022-09-17T15:56:27.685Z,97825.41
2022-09-17T15:59:01.032Z,97828.63
2022-09-17T16:01:55.491Z,97833.44
2022-09-17T16:04:28.811Z,97831.16
2022-09-17T16:07:02.153Z,97834.09
2022-09-17T16:09:40.408Z,97834.34
2022-09-17T16:12:08.526Z,97825.66
2022-09-17T16:14:36.384Z,97824.31
2022-09-17T16:17:17.069Z,97836.00
2022-09-17T16:19:45.021Z,97838.00
2022-09-17T16:22:35.177Z,97848.56
2022-09-17T16:25:05.247Z,97844.56
2022-09-17T16:27:35.508Z,97839.97
2022-09-17T16:30:05.352Z,97842.41
2022-09-17T16:32:33.161Z,97837.00
2022-09-17T16:35:00.978Z,97838.38
2022-09-17T16:37:28.791Z,97848.91
2022-09-17T16:39:56.616Z,97838.66
2022-09-17T16:42:25.804Z,97843.28
2022-09-17T16:44:54.859Z,97843.56
2022-09-17T16:47:22.665Z,97844.91
2022-09-17T16:49:50.441Z,97848.16
2022-09-17T16:52:18.842Z,97854.66
2022-09-17T16:54:46.668Z,97845.47
2022-09-17T16:57:14.476Z,97846.28
2022-09-17T16:59:43.733Z,97837.09
2022-09-17T17:02:11.796Z,97846.56
2022-09-17T17:04:39.564Z,97840.66
2022-09-17T17:07:07.360Z,97837.13
2022-09-17T17:09:35.161Z,97838.22
2022-09-17T17:12:03.357Z,97840.94
2022-09-17T17:14:31.164Z,97842.28
2022-09-17T17:17:00.427Z,97854.72
2022-09-17T17:19:29.417Z,97845.53
2022-09-17T17:21:57.200Z,97854.72
2022-09-17T17:24:25.412Z,97852.81
2022-09-17T17:26:53.245Z,97866.03
2022-09-17T17:29:21.545Z,97867.38
2022-09-17T17:31:50.025Z,97921.63
2022-09-17T17:34:19.332Z,97886.41
2022-09-17T17:36:49.640Z,97898.38
2022-09-17T17:39:17.517Z,97893.91
2022-09-17T17:41:49.636Z,97905.44
2022-09-17T17:44:21.689Z,97906.97
2022-09-17T17:46:49.495Z,97903.19
2022-09-17T17:49:17.808Z,97903.09
2022-09-17T17:51:48.496Z,97897.22
2022-09-17T17:54:16.437Z,97895.53
2022-09-17T17:56:44.216Z,97901.56
2022-09-17T17:59:12.005Z,97896.09
2022-09-17T18:01:39.838Z,97897.19
2022-09-17T18:04:08.543Z,97895.00
2022-09-17T18:06:36.503Z,97900.69
2022-09-17T18:09:06.066Z,97904.22
2022-09-17T18:11:34.466Z,97900.88
2022-09-17T18:14:02.482Z,97898.47
2022-09-17T18:16:34.057Z,97907.50
2022-09-17T18:19:01.927Z,97913.09
2022-09-17T18:21:29.972Z,97912.88
2022-09-17T18:23:57.757Z,97922.00
2022-09-17T18:26:28.630Z,97911.22
2022-09-17T18:28:56.694Z,97931.19
2022-09-17T18:31:26.593Z,97928.00
2022-09-17T18:33:57.635Z,97936.38
2022-09-17T18:36:25.937Z,97930.69
2022-09-17T18:38:56.537Z,97935.53
2022-09-17T18:41:24.581Z,97930.38
2022-09-17T18:43:53.784Z,97936.88
2022-09-17T18:46:21.649Z,97939.78
2022-09-17T18:48:54.604Z,97939.84
2022-09-17T18:51:23.001Z,97943.06
2022-09-17T18:53:51.763Z,97951.44
2022-09-17T18:56:21.474Z,97950.91
2022-09-17T18:58:50.237Z,97949.25
2022-09-17T19:01:20.262Z,97947.13
2022-09-17T19:03:48.285Z,97953.78
2022-09-17T19:06:16.496Z,97948.44
2022-09-17T19:08:45.062Z,97951.94
2022-09-17T19:11:13.241Z,97958.91
2022-09-17T19:13:42.709Z,97957.38
2022-09-17T19:16:11.812Z,97973.47
2022-09-17T19:18:41.084Z,97977.56
2022-09-17T19:21:11.492Z,97987.25
2022-09-17T19:23:41.976Z,97993.59
2022-09-17T19:26:11.460Z,97990.69
2022-09-17T19:28:40.800Z,97999.56
2022-09-17T19:31:10.066Z,97993.28
2022-09-17T19:33:38.469Z,97997.56
2022-09-17T19:36:10.201Z,97994.56
2022-09-17T19:38:38.402Z,97998.63
2022-09-17T19:41:08.340Z,97999.44
2022-09-17T19:43:37.039Z,98009.09
2022-09-17T19:46:06.222Z,98008.28
2022-09-17T19:48:35.745Z,98013.16
2022-09-17T19:51:04.332Z,98024.13
2022-09-17T19:53:34.684Z,98035.22
2022-09-17T19:56:02.866Z,98037.03
2022-09-17T19:58:30.628Z,98039.97
2022-09-17T20:00:59.080Z,98038.59
2022-09-17T20:03:27.309Z,98038.22
2022-09-17T20:06:00.193Z,98045.44
2022-09-17T20:08:28.221Z,98051.81
2022-09-17T20:11:05.572Z,98053.38
2022-09-17T20:13:33.393Z,98046.88
2022-09-17T20:16:04.995Z,98039.31
2022-09-17T20:18:33.060Z,98038.41
2022-09-17T20:21:01.058Z,98042.91
2022-09-17T20:23:31.759Z,98041.28
2022-09-17T20:26:00.995Z,98044.16
2022-09-17T20:28:29.033Z,98044.41
2022-09-17T20:31:04.258Z,98052.75
2022-09-17T20:33:32.372Z,98051.09
2022-09-17T20:36:00.802Z,98053.47
2022-09-17T20:41:22.100Z,98064.50
2022-09-17T20:43:52.544Z,98061.56
2022-09-17T20:46:24.815Z,98066.13
2022-09-17T20:48:57.483Z,98061.94
2022-09-17T20:51:26.918Z,98056.75
2022-09-17T20:53:54.778Z,98062.63
2022-09-17T20:56:25.337Z,98072.03
2022-09-17T20:59:00.045Z,98061.88
2022-09-17T21:01:32.268Z,98066.91
2022-09-17T21:04:01.473Z,98073.34
2022-09-17T21:06:31.127Z,98071.50
2022-09-17T21:09:00.068Z,98080.28
2022-09-17T21:11:32.657Z,98088.34
2022-09-17T21:14:00.747Z,98086.59
2022-09-17T21:16:28.966Z,98087.28
2022-09-17T21:18:58.007Z,98089.00
2022-09-17T21:21:26.658Z,98086.53
2022-09-17T21:23:54.971Z,98087.34
2022-09-17T21:26:24.049Z,98099.47
2022-09-17T21:28:56.354Z,98089.00
2022-09-17T21:31:31.098Z,98099.69
2022-09-17T21:34:02.207Z,98101.06
2022-09-17T21:36:32.072Z,98095.03
2022-09-17T21:39:01.078Z,98093.03
2022-09-17T21:41:29.191Z,98100.59
2022-09-17T21:43:58.440Z,98096.53
2022-09-17T21:46:29.081Z,98098.13
2022-09-17T21:48:58.166Z,98095.09
2022-09-17T21:51:30.294Z,98091.91
2022-09-17T21:53:59.541Z,98100.56
2022-09-17T21:56:27.623Z,98096.00
2022-09-17T21:58:58.663Z,98094.03
2022-09-17T22:01:31.128Z,98094.63
2022-09-17T22:03:59.963Z,98101.06
2022-09-17T22:06:30.250Z,98097.31
2022-09-17T22:08:59.301Z,98095.47
2022-09-17T22:11:29.482Z,98102.00
2022-09-17T22:14:00.923Z,98102.63
2022-09-17T22:16:31.176Z,98097.56
2022-09-17T22:18:59.727Z,98096.81
2022-09-17T22:21:28.916Z,98095.19
2022-09-17T22:24:02.077Z,98093.88
2022-09-17T22:26:31.946Z,98091.69
2022-09-17T22:29:03.740Z,98090.38
2022-09-17T22:31:31.882Z,98092.81
2022-09-17T22:33:59.965Z,98099.50
2022-09-17T22:36:28.461Z,98087.94
2022-09-17T22:38:58.391Z,98080.59
2022-09-17T22:41:27.699Z,98104.47
2022-09-17T22:43:56.940Z,98088.50
2022-09-17T22:46:28.381Z,98090.63
2022-09-17T22:48:56.680Z,98085.13
2022-09-17T22:51:24.656Z,98083.94
2022-09-17T22:53:53.038Z,98090.94
2022-09-17T22:56:23.315Z,98079.84
2022-09-17T22:58:51.658Z,98092.19
2022-09-17T23:01:21.523Z,98088.44
2022-09-17T23:03:52.597Z,98085.75
2022-09-17T23:06:22.436Z,98085.31
2022-09-17T23:08:50.786Z,98084.75
2022-09-17T23:11:20.059Z,98082.81
2022-09-17T23:13:48.824Z,98087.13
2022-09-17T23:16:17.364Z,98092.25
2022-09-17T23:18:45.512Z,98084.19
2022-09-17T23:21:16.655Z,98092.00
2022-09-17T23:23:46.097Z,98093.88
2022-09-17T23:26:16.665Z,98093.38
2022-09-17T23:28:44.569Z,98099.78
2022-09-17T23:31:14.665Z,98094.03
2022-09-17T23:33:42.961Z,98092.06
2022-09-17T23:36:13.226Z,98094.78
2022-09-17T23:38:43.603Z,98085.69
2022-09-17T23:41:13.693Z,98095.66
2022-09-17T23:43:41.971Z,98090.19
2022-09-17T23:46:10.212Z,98087.25
2022-09-17T23:48:38.907Z,98091.59
2022-09-17T23:51:07.235Z,98088.38
2022-09-17T23:53:37.088Z,98083.56
2022-09-17T23:56:12.707Z,98089.19
2022-09-17T23:58:41.085Z,98089.69
